Terminal Aerodrome Forecast
Issued by NWS

Home | Current Version | Previous Version | Text Only | Print | Product List | Glossary On
Versions: 1 2 3 4 5 6 7 8 9 10 11 12 13 14
406
FTUS43 KIND 270525
TAFHUF
TAF
KHUF 270525Z 2706/2806 VRB03KT P6SM BKN080
     FM271200 VRB03KT P6SM BKN025
     FM271300 13004KT P6SM BKN035
     FM271500 12006KT P6SM VCSH OVC090
     FM271800 12010KT 6SM -SHRA OVC060
     FM272100 17008KT P6SM -SHRA VCTS OVC050CB
     FM280000 17007KT P6SM -SHRA BKN050
     FM280500 28005KT 5SM -SHRA OVC015=

USA.gov is the U.S. government's official web portal to all federal, state and local government web resources and services.